Terminal Aerodrome Forecast
Issued by NWS

Home | Current Version | Previous Version | Text Only | Print | Product List | Glossary On
Versions: 1 2 3 4 5 6 7 8 9 10 11 12 13 14 15
000
FTUS46 KSGX 262323
TAFSNA
TAF
KSNA 262323Z 2700/2724 22011KT P6SM SCT030
     FM270300 VRB05KT P6SM FEW020
     FM270800 VRB05KT P6SM BKN018
     FM271830 22011KT P6SM SCT025=

USA.gov is the U.S. government's official web portal to all federal, state and local government web resources and services.